Alread, Arkansas
Current Conditions -  °F | °C
As of 12:15 PM on Wednesday 28 Jan 2015 (Local Time) from KCCA Reporting Station
Clear Clear  
Wind Chill: 55°   Ceiling: Unl
Heat Index: 55°   Visibility: 7mi
Dew Point: 36°   Wind: 7mph
Humidity: 47%   Direction: 160°SSE
Pressure: 30.18"   Gusts: NA
Location:  35.6269°N, 92.5508°W
Report Text: KCCA 281815Z AUTO 16006KT 020V020 7SM CLR 13/02 A3018 RMK AO2
Loading
Personal Weather Stations






























Interactive Weather Map New forecast layout! Learn more

10-Day Weather Forecast

Advertisements
Track Severe Weather on mobile